sensor_id;sensor_type;location;lat;lon;timestamp;P1;durP1;ratioP1;P2;durP2;ratioP2
21334;SDS011;69435;52.670;13.544;2023-04-19T00:00:47;3.20;;;2.80;;
21334;SDS011;69435;52.670;13.544;2023-04-19T00:04:04;5.97;;;3.13;;
21334;SDS011;69435;52.670;13.544;2023-04-19T00:07:03;4.10;;;3.07;;
21334;SDS011;69435;52.670;13.544;2023-04-19T00:10:06;4.27;;;2.70;;
21334;SDS011;69435;52.670;13.544;2023-04-19T00:12:56;4.40;;;2.83;;
21334;SDS011;69435;52.670;13.544;2023-04-19T00:15:45;3.37;;;2.90;;
21334;SDS011;69435;52.670;13.544;2023-04-19T00:18:39;5.30;;;3.10;;
21334;SDS011;69435;52.670;13.544;2023-04-19T00:24:40;5.13;;;3.00;;
21334;SDS011;69435;52.670;13.544;2023-04-19T00:31:04;3.53;;;3.00;;
21334;SDS011;69435;52.670;13.544;2023-04-19T00:33:57;4.13;;;2.63;;
21334;SDS011;69435;52.670;13.544;2023-04-19T00:36:43;4.23;;;2.80;;
21334;SDS011;69435;52.670;13.544;2023-04-19T00:39:32;3.27;;;2.93;;
21334;SDS011;69435;52.670;13.544;2023-04-19T00:42:22;3.23;;;2.80;;
21334;SDS011;69435;52.670;13.544;2023-04-19T00:45:10;5.33;;;3.20;;
21334;SDS011;69435;52.670;13.544;2023-04-19T00:48:01;4.47;;;2.70;;
21334;SDS011;69435;52.670;13.544;2023-04-19T00:55:01;3.43;;;2.60;;
21334;SDS011;69435;52.670;13.544;2023-04-19T00:58:02;4.87;;;3.33;;
21334;SDS011;69435;52.670;13.544;2023-04-19T01:00:52;4.83;;;2.83;;
21334;SDS011;69435;52.670;13.544;2023-04-19T01:04:08;4.87;;;2.83;;
21334;SDS011;69435;52.670;13.544;2023-04-19T01:07:14;4.67;;;2.93;;
21334;SDS011;69435;52.670;13.544;2023-04-19T01:10:00;2.97;;;2.53;;
21334;SDS011;69435;52.670;13.544;2023-04-19T01:12:50;6.47;;;2.77;;
21334;SDS011;69435;52.670;13.544;2023-04-19T01:15:38;2.83;;;2.53;;
21334;SDS011;69435;52.670;13.544;2023-04-19T01:23:11;4.40;;;3.00;;
21334;SDS011;69435;52.670;13.544;2023-04-19T01:30:11;5.63;;;2.70;;
21334;SDS011;69435;52.670;13.544;2023-04-19T01:33:06;4.07;;;2.80;;
21334;SDS011;69435;52.670;13.544;2023-04-19T01:35:53;7.33;;;2.80;;
21334;SDS011;69435;52.670;13.544;2023-04-19T01:38:40;4.10;;;2.93;;
21334;SDS011;69435;52.670;13.544;2023-04-19T01:42:12;2.70;;;2.43;;
21334;SDS011;69435;52.670;13.544;2023-04-19T01:45:09;7.67;;;3.23;;
21334;SDS011;69435;52.670;13.544;2023-04-19T01:48:02;4.03;;;2.80;;
21334;SDS011;69435;52.670;13.544;2023-04-19T01:51:19;3.93;;;3.30;;
21334;SDS011;69435;52.670;13.544;2023-04-19T01:55:29;7.27;;;2.60;;
21334;SDS011;69435;52.670;13.544;2023-04-19T01:58:31;3.33;;;3.00;;
21334;SDS011;69435;52.670;13.544;2023-04-19T02:05:18;3.80;;;2.80;;
21334;SDS011;69435;52.670;13.544;2023-04-19T02:08:44;4.67;;;2.83;;
21334;SDS011;69435;52.670;13.544;2023-04-19T02:12:27;5.87;;;2.97;;
21334;SDS011;69435;52.670;13.544;2023-04-19T02:16:11;4.80;;;2.50;;
21334;SDS011;69435;52.670;13.544;2023-04-19T02:22:59;4.90;;;2.30;;
21334;SDS011;69435;52.670;13.544;2023-04-19T02:26:18;3.20;;;2.50;;
21334;SDS011;69435;52.670;13.544;2023-04-19T02:29:09;2.50;;;2.10;;
21334;SDS011;69435;52.670;13.544;2023-04-19T02:32:00;2.40;;;2.30;;
21334;SDS011;69435;52.670;13.544;2023-04-19T02:34:53;2.40;;;2.20;;
21334;SDS011;69435;52.670;13.544;2023-04-19T02:38:09;5.07;;;2.80;;
21334;SDS011;69435;52.670;13.544;2023-04-19T02:41:30;4.10;;;2.47;;
21334;SDS011;69435;52.670;13.544;2023-04-19T02:43:58;6.13;;;2.53;;
21334;SDS011;69435;52.670;13.544;2023-04-19T02:46:48;4.67;;;2.63;;
21334;SDS011;69435;52.670;13.544;2023-04-19T02:49:35;2.53;;;2.33;;
21334;SDS011;69435;52.670;13.544;2023-04-19T02:55:57;3.17;;;2.53;;
21334;SDS011;69435;52.670;13.544;2023-04-19T02:59:06;2.87;;;2.20;;
21334;SDS011;69435;52.670;13.544;2023-04-19T03:02:26;2.60;;;2.37;;
21334;SDS011;69435;52.670;13.544;2023-04-19T03:05:25;8.77;;;2.87;;
21334;SDS011;69435;52.670;13.544;2023-04-19T03:08:42;2.00;;;1.90;;
21334;SDS011;69435;52.670;13.544;2023-04-19T03:12:03;2.57;;;2.10;;
21334;SDS011;69435;52.670;13.544;2023-04-19T03:14:57;4.50;;;2.20;;
21334;SDS011;69435;52.670;13.544;2023-04-19T03:18:00;2.37;;;2.17;;
21334;SDS011;69435;52.670;13.544;2023-04-19T03:20:57;2.27;;;2.00;;
21334;SDS011;69435;52.670;13.544;2023-04-19T03:24:10;2.20;;;2.03;;
21334;SDS011;69435;52.670;13.544;2023-04-19T03:27:49;2.00;;;1.90;;
21334;SDS011;69435;52.670;13.544;2023-04-19T03:31:53;3.37;;;1.93;;
21334;SDS011;69435;52.670;13.544;2023-04-19T03:39:05;5.50;;;2.50;;
21334;SDS011;69435;52.670;13.544;2023-04-19T03:54:08;2.40;;;2.10;;
21334;SDS011;69435;52.670;13.544;2023-04-19T03:57:25;3.87;;;2.23;;
21334;SDS011;69435;52.670;13.544;2023-04-19T04:01:22;3.57;;;2.20;;
21334;SDS011;69435;52.670;13.544;2023-04-19T04:08:14;3.93;;;2.53;;
21334;SDS011;69435;52.670;13.544;2023-04-19T04:11:16;4.63;;;2.57;;
21334;SDS011;69435;52.670;13.544;2023-04-19T04:18:22;2.47;;;2.30;;
21334;SDS011;69435;52.670;13.544;2023-04-19T04:22:09;2.77;;;2.40;;
21334;SDS011;69435;52.670;13.544;2023-04-19T04:26:01;5.40;;;2.30;;
21334;SDS011;69435;52.670;13.544;2023-04-19T04:40:50;4.67;;;2.67;;
21334;SDS011;69435;52.670;13.544;2023-04-19T04:43:40;2.57;;;2.37;;
21334;SDS011;69435;52.670;13.544;2023-04-19T04:46:57;4.90;;;2.63;;
21334;SDS011;69435;52.670;13.544;2023-04-19T04:50:08;3.07;;;2.77;;
21334;SDS011;69435;52.670;13.544;2023-04-19T04:57:57;4.00;;;2.40;;
21334;SDS011;69435;52.670;13.544;2023-04-19T05:01:09;4.97;;;2.50;;
21334;SDS011;69435;52.670;13.544;2023-04-19T05:04:16;4.43;;;2.57;;
21334;SDS011;69435;52.670;13.544;2023-04-19T05:07:42;6.40;;;2.43;;
21334;SDS011;69435;52.670;13.544;2023-04-19T05:11:03;8.10;;;2.60;;
21334;SDS011;69435;52.670;13.544;2023-04-19T05:14:18;3.67;;;2.40;;
21334;SDS011;69435;52.670;13.544;2023-04-19T05:17:42;7.20;;;2.17;;
21334;SDS011;69435;52.670;13.544;2023-04-19T05:20:49;2.50;;;2.27;;
21334;SDS011;69435;52.670;13.544;2023-04-19T05:24:13;5.93;;;2.57;;
21334;SDS011;69435;52.670;13.544;2023-04-19T05:27:18;2.93;;;1.87;;
21334;SDS011;69435;52.670;13.544;2023-04-19T05:30:35;5.80;;;2.50;;
21334;SDS011;69435;52.670;13.544;2023-04-19T05:50:25;2.67;;;1.47;;
21334;SDS011;69435;52.670;13.544;2023-04-19T05:56:45;4.40;;;1.87;;
21334;SDS011;69435;52.670;13.544;2023-04-19T06:09:56;5.83;;;2.07;;
21334;SDS011;69435;52.670;13.544;2023-04-19T06:12:56;1.70;;;1.60;;
21334;SDS011;69435;52.670;13.544;2023-04-19T06:19:16;6.27;;;2.13;;
21334;SDS011;69435;52.670;13.544;2023-04-19T06:22:14;3.27;;;1.60;;
21334;SDS011;69435;52.670;13.544;2023-04-19T06:25:00;1.50;;;1.40;;
21334;SDS011;69435;52.670;13.544;2023-04-19T06:27:46;2.60;;;1.60;;
21334;SDS011;69435;52.670;13.544;2023-04-19T06:30:38;2.33;;;1.90;;
21334;SDS011;69435;52.670;13.544;2023-04-19T06:33:24;3.13;;;1.70;;
21334;SDS011;69435;52.670;13.544;2023-04-19T06:36:10;2.77;;;1.40;;
21334;SDS011;69435;52.670;13.544;2023-04-19T06:42:03;2.00;;;1.80;;
21334;SDS011;69435;52.670;13.544;2023-04-19T06:44:53;4.40;;;1.57;;
21334;SDS011;69435;52.670;13.544;2023-04-19T06:47:43;5.47;;;1.77;;
21334;SDS011;69435;52.670;13.544;2023-04-19T06:50:39;4.53;;;1.80;;
21334;SDS011;69435;52.670;13.544;2023-04-19T06:53:28;4.53;;;2.00;;
21334;SDS011;69435;52.670;13.544;2023-04-19T06:56:37;1.77;;;1.40;;
21334;SDS011;69435;52.670;13.544;2023-04-19T06:59:34;5.20;;;1.60;;
21334;SDS011;69435;52.670;13.544;2023-04-19T07:02:30;4.60;;;1.80;;
21334;SDS011;69435;52.670;13.544;2023-04-19T07:05:17;5.60;;;2.27;;
21334;SDS011;69435;52.670;13.544;2023-04-19T07:08:37;4.37;;;1.60;;
21334;SDS011;69435;52.670;13.544;2023-04-19T07:11:32;3.43;;;2.13;;
21334;SDS011;69435;52.670;13.544;2023-04-19T07:14:25;6.00;;;1.90;;
21334;SDS011;69435;52.670;13.544;2023-04-19T07:17:23;3.77;;;1.70;;
21334;SDS011;69435;52.670;13.544;2023-04-19T07:20:17;2.70;;;1.70;;
21334;SDS011;69435;52.670;13.544;2023-04-19T07:26:13;3.87;;;1.90;;
21334;SDS011;69435;52.670;13.544;2023-04-19T07:29:04;3.03;;;1.57;;
21334;SDS011;69435;52.670;13.544;2023-04-19T07:32:25;3.37;;;1.70;;
21334;SDS011;69435;52.670;13.544;2023-04-19T07:35:13;4.77;;;1.73;;
21334;SDS011;69435;52.670;13.544;2023-04-19T07:38:04;2.73;;;2.00;;
21334;SDS011;69435;52.670;13.544;2023-04-19T07:46:42;2.57;;;1.73;;
21334;SDS011;69435;52.670;13.544;2023-04-19T07:56:10;2.50;;;2.30;;
21334;SDS011;69435;52.670;13.544;2023-04-19T07:59:07;2.20;;;2.00;;
21334;SDS011;69435;52.670;13.544;2023-04-19T08:02:20;5.47;;;2.70;;
21334;SDS011;69435;52.670;13.544;2023-04-19T08:08:01;2.77;;;1.90;;
21334;SDS011;69435;52.670;13.544;2023-04-19T08:20:46;3.00;;;2.03;;
21334;SDS011;69435;52.670;13.544;2023-04-19T08:33:55;2.60;;;2.40;;
21334;SDS011;69435;52.670;13.544;2023-04-19T08:37:07;2.90;;;2.20;;
21334;SDS011;69435;52.670;13.544;2023-04-19T08:54:38;3.57;;;2.43;;
21334;SDS011;69435;52.670;13.544;2023-04-19T09:11:36;4.37;;;2.17;;
21334;SDS011;69435;52.670;13.544;2023-04-19T09:14:28;2.57;;;2.23;;
21334;SDS011;69435;52.670;13.544;2023-04-19T09:17:22;6.17;;;2.53;;
21334;SDS011;69435;52.670;13.544;2023-04-19T09:20:16;2.57;;;2.20;;
21334;SDS011;69435;52.670;13.544;2023-04-19T09:23:25;3.33;;;2.60;;
21334;SDS011;69435;52.670;13.544;2023-04-19T09:26:52;2.47;;;2.27;;
21334;SDS011;69435;52.670;13.544;2023-04-19T09:36:42;3.07;;;2.77;;
21334;SDS011;69435;52.670;13.544;2023-04-19T09:42:11;3.47;;;2.30;;
21334;SDS011;69435;52.670;13.544;2023-04-19T09:44:56;3.73;;;2.27;;
21334;SDS011;69435;52.670;13.544;2023-04-19T09:47:40;4.20;;;2.63;;
21334;SDS011;69435;52.670;13.544;2023-04-19T09:50:27;4.07;;;2.50;;
21334;SDS011;69435;52.670;13.544;2023-04-19T09:53:13;5.93;;;2.37;;
21334;SDS011;69435;52.670;13.544;2023-04-19T09:56:04;4.70;;;2.30;;
21334;SDS011;69435;52.670;13.544;2023-04-19T09:59:03;6.23;;;2.30;;
21334;SDS011;69435;52.670;13.544;2023-04-19T10:02:05;5.00;;;2.57;;
21334;SDS011;69435;52.670;13.544;2023-04-19T10:05:00;6.03;;;2.50;;
21334;SDS011;69435;52.670;13.544;2023-04-19T10:08:07;4.43;;;2.40;;
21334;SDS011;69435;52.670;13.544;2023-04-19T10:10:55;7.30;;;2.57;;
21334;SDS011;69435;52.670;13.544;2023-04-19T10:13:43;3.10;;;2.77;;
21334;SDS011;69435;52.670;13.544;2023-04-19T10:33:05;5.07;;;2.60;;
21334;SDS011;69435;52.670;13.544;2023-04-19T10:35:46;2.70;;;2.50;;
21334;SDS011;69435;52.670;13.544;2023-04-19T10:41:57;4.70;;;2.47;;
21334;SDS011;69435;52.670;13.544;2023-04-19T10:48:30;2.63;;;2.43;;
21334;SDS011;69435;52.670;13.544;2023-04-19T10:51:22;4.40;;;2.63;;
21334;SDS011;69435;52.670;13.544;2023-04-19T10:54:32;5.27;;;2.23;;
21334;SDS011;69435;52.670;13.544;2023-04-19T10:57:26;3.10;;;2.67;;
21334;SDS011;69435;52.670;13.544;2023-04-19T11:00:18;4.77;;;2.20;;
21334;SDS011;69435;52.670;13.544;2023-04-19T11:06:30;3.10;;;2.87;;
21334;SDS011;69435;52.670;13.544;2023-04-19T11:09:25;2.70;;;2.43;;
21334;SDS011;69435;52.670;13.544;2023-04-19T11:12:20;4.30;;;2.43;;
21334;SDS011;69435;52.670;13.544;2023-04-19T11:15:12;3.53;;;2.50;;
21334;SDS011;69435;52.670;13.544;2023-04-19T11:18:04;3.50;;;2.70;;
21334;SDS011;69435;52.670;13.544;2023-04-19T11:20:59;3.20;;;2.07;;
21334;SDS011;69435;52.670;13.544;2023-04-19T11:23:45;3.80;;;2.50;;
21334;SDS011;69435;52.670;13.544;2023-04-19T11:26:33;4.77;;;2.40;;
21334;SDS011;69435;52.670;13.544;2023-04-19T11:29:20;5.53;;;2.67;;
21334;SDS011;69435;52.670;13.544;2023-04-19T11:32:06;3.83;;;2.67;;
21334;SDS011;69435;52.670;13.544;2023-04-19T11:34:52;4.70;;;3.00;;
21334;SDS011;69435;52.670;13.544;2023-04-19T11:37:50;3.97;;;2.70;;
21334;SDS011;69435;52.670;13.544;2023-04-19T11:40:45;4.57;;;2.60;;
21334;SDS011;69435;52.670;13.544;2023-04-19T11:43:35;5.17;;;3.10;;
21334;SDS011;69435;52.670;13.544;2023-04-19T11:46:25;4.43;;;2.60;;
21334;SDS011;69435;52.670;13.544;2023-04-19T11:49:24;3.83;;;2.67;;
21334;SDS011;69435;52.670;13.544;2023-04-19T11:52:22;10.40;;;2.70;;
21334;SDS011;69435;52.670;13.544;2023-04-19T11:55:17;4.23;;;2.50;;
21334;SDS011;69435;52.670;13.544;2023-04-19T11:58:05;3.10;;;2.30;;
21334;SDS011;69435;52.670;13.544;2023-04-19T12:00:54;3.20;;;2.53;;
21334;SDS011;69435;52.670;13.544;2023-04-19T12:03:45;5.07;;;2.47;;
21334;SDS011;69435;52.670;13.544;2023-04-19T12:06:38;4.30;;;2.70;;
21334;SDS011;69435;52.670;13.544;2023-04-19T12:09:24;5.23;;;3.27;;
21334;SDS011;69435;52.670;13.544;2023-04-19T12:12:10;2.73;;;2.53;;
21334;SDS011;69435;52.670;13.544;2023-04-19T12:14:56;4.00;;;2.97;;
21334;SDS011;69435;52.670;13.544;2023-04-19T12:17:56;5.13;;;2.63;;
21334;SDS011;69435;52.670;13.544;2023-04-19T12:20:47;7.17;;;3.20;;
21334;SDS011;69435;52.670;13.544;2023-04-19T12:23:35;6.63;;;3.23;;
21334;SDS011;69435;52.670;13.544;2023-04-19T12:26:21;6.87;;;3.23;;
21334;SDS011;69435;52.670;13.544;2023-04-19T12:29:08;8.70;;;2.97;;
21334;SDS011;69435;52.670;13.544;2023-04-19T12:31:54;5.33;;;3.10;;
21334;SDS011;69435;52.670;13.544;2023-04-19T12:34:40;7.73;;;3.17;;
21334;SDS011;69435;52.670;13.544;2023-04-19T12:37:26;6.03;;;3.53;;
21334;SDS011;69435;52.670;13.544;2023-04-19T12:40:14;5.33;;;3.10;;
21334;SDS011;69435;52.670;13.544;2023-04-19T12:43:00;4.97;;;3.07;;
21334;SDS011;69435;52.670;13.544;2023-04-19T12:45:52;5.27;;;2.67;;
21334;SDS011;69435;52.670;13.544;2023-04-19T12:48:38;5.63;;;3.30;;
21334;SDS011;69435;52.670;13.544;2023-04-19T12:51:27;4.20;;;2.90;;
21334;SDS011;69435;52.670;13.544;2023-04-19T12:54:14;3.47;;;3.00;;
21334;SDS011;69435;52.670;13.544;2023-04-19T12:57:00;3.37;;;2.80;;
21334;SDS011;69435;52.670;13.544;2023-04-19T12:59:46;4.70;;;2.80;;
21334;SDS011;69435;52.670;13.544;2023-04-19T13:02:33;5.33;;;3.23;;
21334;SDS011;69435;52.670;13.544;2023-04-19T13:05:21;3.97;;;3.43;;
21334;SDS011;69435;52.670;13.544;2023-04-19T13:08:08;5.17;;;3.20;;
21334;SDS011;69435;52.670;13.544;2023-04-19T13:10:56;3.57;;;2.90;;
21334;SDS011;69435;52.670;13.544;2023-04-19T13:13:51;3.83;;;3.20;;
21334;SDS011;69435;52.670;13.544;2023-04-19T13:16:38;5.20;;;2.80;;
21334;SDS011;69435;52.670;13.544;2023-04-19T13:19:25;5.13;;;3.47;;
21334;SDS011;69435;52.670;13.544;2023-04-19T13:22:12;4.60;;;3.50;;
21334;SDS011;69435;52.670;13.544;2023-04-19T13:24:58;6.73;;;3.23;;
21334;SDS011;69435;52.670;13.544;2023-04-19T13:27:54;3.70;;;3.07;;
21334;SDS011;69435;52.670;13.544;2023-04-19T13:30:48;6.47;;;3.13;;
21334;SDS011;69435;52.670;13.544;2023-04-19T13:33:35;4.13;;;3.10;;
21334;SDS011;69435;52.670;13.544;2023-04-19T13:36:26;4.67;;;3.07;;
21334;SDS011;69435;52.670;13.544;2023-04-19T13:39:12;6.73;;;2.70;;
21334;SDS011;69435;52.670;13.544;2023-04-19T13:41:58;5.47;;;2.97;;
21334;SDS011;69435;52.670;13.544;2023-04-19T13:44:46;7.63;;;3.50;;
21334;SDS011;69435;52.670;13.544;2023-04-19T13:47:32;7.43;;;3.13;;
21334;SDS011;69435;52.670;13.544;2023-04-19T13:50:18;8.20;;;3.33;;
21334;SDS011;69435;52.670;13.544;2023-04-19T13:53:08;7.30;;;3.50;;
21334;SDS011;69435;52.670;13.544;2023-04-19T13:55:56;11.33;;;3.80;;
21334;SDS011;69435;52.670;13.544;2023-04-19T13:58:43;5.43;;;3.20;;
21334;SDS011;69435;52.670;13.544;2023-04-19T14:01:29;6.60;;;3.50;;
21334;SDS011;69435;52.670;13.544;2023-04-19T14:04:15;9.43;;;3.50;;
21334;SDS011;69435;52.670;13.544;2023-04-19T14:07:01;7.60;;;3.37;;
21334;SDS011;69435;52.670;13.544;2023-04-19T14:09:47;4.30;;;3.23;;
21334;SDS011;69435;52.670;13.544;2023-04-19T14:12:33;8.13;;;3.43;;
21334;SDS011;69435;52.670;13.544;2023-04-19T14:15:19;9.80;;;3.77;;
21334;SDS011;69435;52.670;13.544;2023-04-19T14:18:05;12.63;;;3.63;;
21334;SDS011;69435;52.670;13.544;2023-04-19T14:20:51;8.90;;;4.20;;
21334;SDS011;69435;52.670;13.544;2023-04-19T14:23:42;7.90;;;3.37;;
21334;SDS011;69435;52.670;13.544;2023-04-19T14:26:27;6.53;;;3.60;;
21334;SDS011;69435;52.670;13.544;2023-04-19T14:29:13;5.63;;;4.03;;
21334;SDS011;69435;52.670;13.544;2023-04-19T14:31:59;4.97;;;3.50;;
21334;SDS011;69435;52.670;13.544;2023-04-19T14:34:46;10.03;;;4.23;;
21334;SDS011;69435;52.670;13.544;2023-04-19T14:37:32;5.53;;;3.93;;
21334;SDS011;69435;52.670;13.544;2023-04-19T14:40:18;8.23;;;4.30;;
21334;SDS011;69435;52.670;13.544;2023-04-19T14:43:05;5.43;;;3.90;;
21334;SDS011;69435;52.670;13.544;2023-04-19T14:45:51;5.90;;;3.67;;
21334;SDS011;69435;52.670;13.544;2023-04-19T14:48:41;8.63;;;4.33;;
21334;SDS011;69435;52.670;13.544;2023-04-19T14:51:27;4.10;;;3.50;;
21334;SDS011;69435;52.670;13.544;2023-04-19T14:54:13;7.00;;;3.90;;
21334;SDS011;69435;52.670;13.544;2023-04-19T14:57:00;9.83;;;3.77;;
21334;SDS011;69435;52.670;13.544;2023-04-19T14:59:46;8.53;;;5.50;;
21334;SDS011;69435;52.670;13.544;2023-04-19T15:02:41;6.50;;;4.37;;
21334;SDS011;69435;52.670;13.544;2023-04-19T15:05:29;9.47;;;4.30;;
21334;SDS011;69435;52.670;13.544;2023-04-19T15:08:15;5.60;;;4.37;;
21334;SDS011;69435;52.670;13.544;2023-04-19T15:11:01;9.83;;;4.87;;
21334;SDS011;69435;52.670;13.544;2023-04-19T15:13:47;7.30;;;4.53;;
21334;SDS011;69435;52.670;13.544;2023-04-19T15:16:36;10.37;;;5.20;;
21334;SDS011;69435;52.670;13.544;2023-04-19T15:19:22;9.60;;;4.23;;
21334;SDS011;69435;52.670;13.544;2023-04-19T15:22:08;12.57;;;5.00;;
21334;SDS011;69435;52.670;13.544;2023-04-19T15:24:56;9.10;;;5.20;;
21334;SDS011;69435;52.670;13.544;2023-04-19T15:27:45;8.47;;;5.30;;
21334;SDS011;69435;52.670;13.544;2023-04-19T15:30:39;6.50;;;4.47;;
21334;SDS011;69435;52.670;13.544;2023-04-19T15:33:25;13.50;;;5.57;;
21334;SDS011;69435;52.670;13.544;2023-04-19T15:36:12;9.03;;;4.43;;
21334;SDS011;69435;52.670;13.544;2023-04-19T15:38:58;7.50;;;4.80;;
21334;SDS011;69435;52.670;13.544;2023-04-19T15:41:44;6.90;;;4.97;;
21334;SDS011;69435;52.670;13.544;2023-04-19T15:44:30;9.27;;;4.97;;
21334;SDS011;69435;52.670;13.544;2023-04-19T15:47:16;5.90;;;4.70;;
21334;SDS011;69435;52.670;13.544;2023-04-19T15:50:02;11.00;;;4.87;;
21334;SDS011;69435;52.670;13.544;2023-04-19T15:52:48;9.30;;;5.03;;
21334;SDS011;69435;52.670;13.544;2023-04-19T15:55:35;7.13;;;5.20;;
21334;SDS011;69435;52.670;13.544;2023-04-19T15:58:36;8.00;;;5.40;;
21334;SDS011;69435;52.670;13.544;2023-04-19T16:01:22;12.87;;;5.33;;
21334;SDS011;69435;52.670;13.544;2023-04-19T16:04:08;12.70;;;5.30;;
21334;SDS011;69435;52.670;13.544;2023-04-19T16:06:54;7.57;;;4.50;;
21334;SDS011;69435;52.670;13.544;2023-04-19T16:09:40;10.73;;;5.17;;
21334;SDS011;69435;52.670;13.544;2023-04-19T16:12:26;10.00;;;4.73;;
21334;SDS011;69435;52.670;13.544;2023-04-19T16:15:12;10.77;;;5.30;;
21334;SDS011;69435;52.670;13.544;2023-04-19T16:17:58;8.47;;;4.60;;
21334;SDS011;69435;52.670;13.544;2023-04-19T16:20:44;11.13;;;6.03;;
21334;SDS011;69435;52.670;13.544;2023-04-19T16:23:30;13.03;;;7.07;;
21334;SDS011;69435;52.670;13.544;2023-04-19T16:26:16;9.20;;;5.30;;
21334;SDS011;69435;52.670;13.544;2023-04-19T16:29:02;9.90;;;6.33;;
21334;SDS011;69435;52.670;13.544;2023-04-19T16:31:51;9.33;;;5.37;;
21334;SDS011;69435;52.670;13.544;2023-04-19T16:34:37;18.27;;;6.37;;
21334;SDS011;69435;52.670;13.544;2023-04-19T16:37:23;9.00;;;5.57;;
21334;SDS011;69435;52.670;13.544;2023-04-19T16:40:11;13.27;;;6.00;;
21334;SDS011;69435;52.670;13.544;2023-04-19T16:42:58;14.53;;;5.27;;
21334;SDS011;69435;52.670;13.544;2023-04-19T16:45:43;11.47;;;5.70;;
21334;SDS011;69435;52.670;13.544;2023-04-19T16:48:29;8.63;;;5.47;;
21334;SDS011;69435;52.670;13.544;2023-04-19T16:51:15;9.70;;;5.73;;
21334;SDS011;69435;52.670;13.544;2023-04-19T16:54:01;7.80;;;5.97;;
21334;SDS011;69435;52.670;13.544;2023-04-19T16:56:47;8.63;;;5.50;;
21334;SDS011;69435;52.670;13.544;2023-04-19T16:59:33;7.60;;;5.60;;
21334;SDS011;69435;52.670;13.544;2023-04-19T17:02:20;9.90;;;5.90;;
21334;SDS011;69435;52.670;13.544;2023-04-19T17:05:06;11.20;;;6.83;;
21334;SDS011;69435;52.670;13.544;2023-04-19T17:07:53;10.40;;;6.07;;
21334;SDS011;69435;52.670;13.544;2023-04-19T17:10:38;13.90;;;6.90;;
21334;SDS011;69435;52.670;13.544;2023-04-19T17:13:24;10.60;;;5.87;;
21334;SDS011;69435;52.670;13.544;2023-04-19T17:16:11;9.50;;;6.80;;
21334;SDS011;69435;52.670;13.544;2023-04-19T17:18:57;10.00;;;6.33;;
21334;SDS011;69435;52.670;13.544;2023-04-19T17:21:49;11.03;;;6.03;;
21334;SDS011;69435;52.670;13.544;2023-04-19T17:24:36;7.03;;;6.20;;
21334;SDS011;69435;52.670;13.544;2023-04-19T17:27:23;7.63;;;6.13;;
21334;SDS011;69435;52.670;13.544;2023-04-19T17:30:09;10.77;;;6.37;;
21334;SDS011;69435;52.670;13.544;2023-04-19T17:32:56;7.23;;;6.53;;
21334;SDS011;69435;52.670;13.544;2023-04-19T17:35:42;10.57;;;6.83;;
21334;SDS011;69435;52.670;13.544;2023-04-19T17:38:28;9.50;;;6.60;;
21334;SDS011;69435;52.670;13.544;2023-04-19T17:41:14;11.00;;;6.70;;
21334;SDS011;69435;52.670;13.544;2023-04-19T17:44:00;8.83;;;7.47;;
21334;SDS011;69435;52.670;13.544;2023-04-19T17:46:46;17.37;;;6.90;;
21334;SDS011;69435;52.670;13.544;2023-04-19T17:49:32;9.37;;;7.07;;
21334;SDS011;69435;52.670;13.544;2023-04-19T17:52:18;9.83;;;6.87;;
21334;SDS011;69435;52.670;13.544;2023-04-19T17:55:04;9.77;;;7.30;;
21334;SDS011;69435;52.670;13.544;2023-04-19T17:57:51;13.87;;;7.87;;
21334;SDS011;69435;52.670;13.544;2023-04-19T18:00:37;12.47;;;8.70;;
21334;SDS011;69435;52.670;13.544;2023-04-19T18:03:23;10.63;;;7.50;;
21334;SDS011;69435;52.670;13.544;2023-04-19T18:06:09;12.13;;;8.37;;
21334;SDS011;69435;52.670;13.544;2023-04-19T18:08:57;12.50;;;7.17;;
21334;SDS011;69435;52.670;13.544;2023-04-19T18:11:44;13.23;;;9.20;;
21334;SDS011;69435;52.670;13.544;2023-04-19T18:14:33;13.67;;;8.97;;
21334;SDS011;69435;52.670;13.544;2023-04-19T18:17:20;13.43;;;9.10;;
21334;SDS011;69435;52.670;13.544;2023-04-19T18:20:10;13.23;;;9.73;;
21334;SDS011;69435;52.670;13.544;2023-04-19T18:23:00;15.83;;;9.67;;
21334;SDS011;69435;52.670;13.544;2023-04-19T18:25:59;11.47;;;9.40;;
21334;SDS011;69435;52.670;13.544;2023-04-19T18:28:49;16.17;;;9.60;;
21334;SDS011;69435;52.670;13.544;2023-04-19T18:31:36;14.30;;;10.00;;
21334;SDS011;69435;52.670;13.544;2023-04-19T18:34:25;14.50;;;9.93;;
21334;SDS011;69435;52.670;13.544;2023-04-19T18:37:14;16.30;;;9.73;;
21334;SDS011;69435;52.670;13.544;2023-04-19T18:40:04;17.43;;;11.07;;
21334;SDS011;69435;52.670;13.544;2023-04-19T18:42:52;19.07;;;11.13;;
21334;SDS011;69435;52.670;13.544;2023-04-19T18:45:42;16.67;;;11.17;;
21334;SDS011;69435;52.670;13.544;2023-04-19T18:48:29;17.97;;;12.40;;
21334;SDS011;69435;52.670;13.544;2023-04-19T18:51:15;17.13;;;11.57;;
21334;SDS011;69435;52.670;13.544;2023-04-19T18:54:02;17.87;;;11.57;;
21334;SDS011;69435;52.670;13.544;2023-04-19T18:57:11;22.90;;;12.87;;
21334;SDS011;69435;52.670;13.544;2023-04-19T18:59:59;20.43;;;12.73;;
21334;SDS011;69435;52.670;13.544;2023-04-19T19:02:45;20.67;;;13.00;;
21334;SDS011;69435;52.670;13.544;2023-04-19T19:05:35;21.17;;;13.00;;
21334;SDS011;69435;52.670;13.544;2023-04-19T19:08:51;20.27;;;12.97;;
21334;SDS011;69435;52.670;13.544;2023-04-19T19:11:51;19.07;;;12.27;;
21334;SDS011;69435;52.670;13.544;2023-04-19T19:15:24;21.07;;;12.73;;
21334;SDS011;69435;52.670;13.544;2023-04-19T19:18:21;22.70;;;13.47;;
21334;SDS011;69435;52.670;13.544;2023-04-19T19:21:20;22.50;;;12.83;;
21334;SDS011;69435;52.670;13.544;2023-04-19T19:24:27;28.47;;;14.37;;
21334;SDS011;69435;52.670;13.544;2023-04-19T19:27:15;24.43;;;13.00;;
21334;SDS011;69435;52.670;13.544;2023-04-19T19:30:04;25.13;;;13.97;;
21334;SDS011;69435;52.670;13.544;2023-04-19T19:32:51;24.23;;;12.80;;
21334;SDS011;69435;52.670;13.544;2023-04-19T19:35:38;20.13;;;13.77;;
21334;SDS011;69435;52.670;13.544;2023-04-19T19:38:25;23.10;;;12.87;;
21334;SDS011;69435;52.670;13.544;2023-04-19T19:41:11;15.63;;;12.30;;
21334;SDS011;69435;52.670;13.544;2023-04-19T19:43:57;19.30;;;11.47;;
21334;SDS011;69435;52.670;13.544;2023-04-19T19:46:43;20.80;;;12.10;;
21334;SDS011;69435;52.670;13.544;2023-04-19T19:49:29;23.93;;;12.33;;
21334;SDS011;69435;52.670;13.544;2023-04-19T19:52:15;17.33;;;12.87;;
21334;SDS011;69435;52.670;13.544;2023-04-19T19:55:11;18.97;;;12.80;;
21334;SDS011;69435;52.670;13.544;2023-04-19T19:57:58;27.00;;;14.40;;
21334;SDS011;69435;52.670;13.544;2023-04-19T20:00:44;22.10;;;12.67;;
21334;SDS011;69435;52.670;13.544;2023-04-19T20:03:30;22.17;;;13.00;;
21334;SDS011;69435;52.670;13.544;2023-04-19T20:06:18;18.13;;;12.73;;
21334;SDS011;69435;52.670;13.544;2023-04-19T20:09:04;18.60;;;11.93;;
21334;SDS011;69435;52.670;13.544;2023-04-19T20:11:51;18.23;;;11.67;;
21334;SDS011;69435;52.670;13.544;2023-04-19T20:14:39;16.23;;;11.77;;
21334;SDS011;69435;52.670;13.544;2023-04-19T20:17:25;23.30;;;11.93;;
21334;SDS011;69435;52.670;13.544;2023-04-19T20:20:11;21.50;;;11.13;;
21334;SDS011;69435;52.670;13.544;2023-04-19T20:22:57;17.53;;;11.17;;
21334;SDS011;69435;52.670;13.544;2023-04-19T20:25:43;17.37;;;12.37;;
21334;SDS011;69435;52.670;13.544;2023-04-19T20:28:31;17.97;;;12.20;;
21334;SDS011;69435;52.670;13.544;2023-04-19T20:31:19;18.13;;;11.87;;
21334;SDS011;69435;52.670;13.544;2023-04-19T20:34:05;21.13;;;11.20;;
21334;SDS011;69435;52.670;13.544;2023-04-19T20:36:51;13.70;;;10.77;;
21334;SDS011;69435;52.670;13.544;2023-04-19T20:39:36;22.73;;;11.63;;